RJBE(METAR)
09/15 21:00
METAR RJBE 151200Z 05011KT 9999 FEW035 27/19 Q1006 RMK 1CU035 A2971=
戻る
トップページへ戻る
IMOC Co,.Ltd.